createdAt,value
2022-09-21T00:01:14.246Z,95952.06
2022-09-21T00:03:43.949Z,95949.44
2022-09-21T00:06:16.938Z,95952.50
2022-09-21T00:08:44.368Z,95949.25
2022-09-21T00:11:31.405Z,95948.88
2022-09-21T00:14:05.541Z,95952.50
2022-09-21T00:16:32.281Z,95946.03
2022-09-21T00:18:59.441Z,95946.84
2022-09-21T00:21:26.421Z,95951.34
2022-09-21T00:23:54.335Z,95949.53
2022-09-21T00:26:24.360Z,95945.22
2022-09-21T00:28:55.989Z,95939.53
2022-09-21T00:31:23.198Z,95947.28
2022-09-21T00:33:51.168Z,95949.91
2022-09-21T00:36:20.210Z,95941.38
2022-09-21T00:38:51.693Z,95946.44
2022-09-21T00:41:18.618Z,95945.63
2022-09-21T00:43:48.612Z,95944.59
2022-09-21T00:46:30.065Z,95937.91
2022-09-21T00:48:58.052Z,95944.81
2022-09-21T00:51:25.715Z,95940.38
2022-09-21T00:53:57.710Z,95944.03
2022-09-21T00:56:24.637Z,95947.31
2022-09-21T00:58:53.621Z,95946.91
2022-09-21T01:01:20.279Z,95946.09
2022-09-21T01:03:47.846Z,95948.16
2022-09-21T01:06:16.931Z,95952.19
2022-09-21T01:08:45.233Z,95951.00
2022-09-21T01:11:38.653Z,95954.44
2022-09-21T01:14:35.721Z,95949.53
2022-09-21T01:17:20.096Z,95959.09
2022-09-21T01:20:06.215Z,95958.72
2022-09-21T01:22:54.418Z,95961.31
2022-09-21T01:25:35.242Z,95952.19
2022-09-21T01:28:23.686Z,95955.66
2022-09-21T01:30:53.555Z,95962.34
2022-09-21T01:33:32.302Z,95952.19
2022-09-21T01:36:06.166Z,95964.59
2022-09-21T01:38:38.819Z,95960.75
2022-09-21T01:41:08.082Z,95957.09
2022-09-21T01:43:39.189Z,95972.75
2022-09-21T01:46:10.990Z,95971.75
2022-09-21T01:48:42.085Z,95952.63
2022-09-21T01:51:12.338Z,95951.41
2022-09-21T01:54:04.987Z,95951.84
2022-09-21T01:56:38.397Z,95952.06
2022-09-21T01:59:18.433Z,95955.28
2022-09-21T02:01:50.256Z,95959.38
2022-09-21T02:04:16.967Z,95955.91
2022-09-21T02:06:46.713Z,95957.34
2022-09-21T02:09:14.217Z,95961.59
2022-09-21T02:11:44.927Z,95962.44
2022-09-21T02:14:20.463Z,95965.06
2022-09-21T02:17:04.794Z,95971.34
2022-09-21T02:19:44.362Z,95959.38
2022-09-21T02:22:16.716Z,95959.59
2022-09-21T02:25:05.016Z,95969.53
2022-09-21T02:27:45.822Z,95971.78
2022-09-21T02:30:26.245Z,95968.53
2022-09-21T02:33:13.336Z,95958.56
2022-09-21T02:36:08.399Z,95958.97
2022-09-21T02:38:47.633Z,95966.50
2022-09-21T02:41:27.858Z,95964.25
2022-09-21T02:44:03.764Z,95957.16
2022-09-21T02:46:39.104Z,95959.38
2022-09-21T02:49:14.061Z,95960.81
2022-09-21T02:51:47.238Z,95968.34
2022-09-21T02:54:18.936Z,95964.47
2022-09-21T02:56:48.771Z,95961.81
2022-09-21T02:59:16.719Z,95960.00
2022-09-21T03:01:43.660Z,95963.06
2022-09-21T03:04:10.979Z,95964.88
2022-09-21T03:06:37.591Z,95958.78
2022-09-21T03:09:04.551Z,95956.94
2022-09-21T03:11:31.117Z,95966.31
2022-09-21T03:13:57.709Z,95967.31
2022-09-21T03:16:24.570Z,95971.41
2022-09-21T03:18:51.298Z,95968.56
2022-09-21T03:21:18.162Z,95967.53
2022-09-21T03:23:44.695Z,95966.53
2022-09-21T03:26:11.235Z,95970.59
2022-09-21T03:28:37.855Z,95977.09
2022-09-21T03:31:06.582Z,95966.94
2022-09-21T03:33:33.357Z,95971.19
2022-09-21T03:35:59.909Z,95974.66
2022-09-21T03:38:26.992Z,95983.19
2022-09-21T03:40:57.911Z,95978.31
2022-09-21T03:43:24.549Z,95984.00
2022-09-21T03:45:51.390Z,95977.94
2022-09-21T03:48:17.935Z,95977.31
2022-09-21T03:50:44.980Z,95976.28
2022-09-21T03:53:11.947Z,95982.19
2022-09-21T03:55:38.628Z,95976.69
2022-09-21T03:58:05.639Z,95976.91
2022-09-21T04:00:33.101Z,95988.47
2022-09-21T04:03:00.306Z,95980.53
2022-09-21T04:05:27.749Z,95989.72
2022-09-21T04:07:55.250Z,95988.47
2022-09-21T04:10:27.122Z,95983.81
2022-09-21T04:12:57.973Z,95987.06
2022-09-21T04:15:24.590Z,95980.38
2022-09-21T04:17:52.162Z,95988.91
2022-09-21T04:20:19.516Z,95990.34
2022-09-21T04:22:47.150Z,95994.81
2022-09-21T04:25:14.612Z,95999.53
2022-09-21T04:27:41.359Z,96006.44
2022-09-21T04:30:10.396Z,96016.19
2022-09-21T04:32:37.099Z,96018.63
2022-09-21T04:35:04.047Z,96014.78
2022-09-21T04:37:30.644Z,96008.47
2022-09-21T04:39:57.178Z,96016.19
2022-09-21T04:42:23.725Z,96027.59
2022-09-21T04:44:51.478Z,96006.00
2022-09-21T04:47:18.030Z,95994.59
2022-09-21T04:49:44.566Z,95987.06
2022-09-21T04:52:12.938Z,95991.53
2022-09-21T04:54:42.337Z,95997.66
2022-09-21T04:57:08.955Z,95999.09
2022-09-21T04:59:35.490Z,96003.56
2022-09-21T05:02:02.038Z,96010.47
2022-09-21T05:04:28.548Z,96019.03
2022-09-21T05:06:55.171Z,96021.06
2022-09-21T05:09:40.362Z,96011.31
2022-09-21T05:12:07.088Z,96018.63
2022-09-21T05:14:33.623Z,96012.13
2022-09-21T05:17:00.143Z,96027.59
2022-09-21T05:19:26.687Z,96033.72
2022-09-21T05:21:53.297Z,96032.47
2022-09-21T05:24:19.848Z,96033.28
2022-09-21T05:26:46.398Z,96039.16
2022-09-21T05:29:13.196Z,96037.16
2022-09-21T05:31:48.183Z,96035.94
2022-09-21T05:34:26.774Z,96034.28
2022-09-21T05:36:53.315Z,96034.09
2022-09-21T05:39:20.137Z,96033.72
2022-09-21T05:41:47.094Z,96041.66
2022-09-21T05:44:14.673Z,96037.16
2022-09-21T05:46:52.729Z,96037.56
2022-09-21T05:49:36.928Z,96041.88
2022-09-21T05:52:16.396Z,96037.78
2022-09-21T05:54:45.980Z,96041.25
2022-09-21T05:57:46.528Z,96044.72
2022-09-21T06:00:20.026Z,96048.34
2022-09-21T06:03:29.472Z,96043.69
2022-09-21T06:05:59.478Z,96036.97
2022-09-21T06:08:26.795Z,96037.56
2022-09-21T06:10:54.862Z,96041.66
2022-09-21T06:13:21.510Z,96047.56
2022-09-21T06:15:48.056Z,96050.84
2022-09-21T06:18:18.019Z,96047.38
2022-09-21T06:20:45.433Z,96046.75
2022-09-21T06:23:13.845Z,96065.06
2022-09-21T06:25:40.733Z,96047.16
2022-09-21T06:28:10.310Z,96049.19
2022-09-21T06:30:37.842Z,96040.25
2022-09-21T06:33:06.406Z,96058.56
2022-09-21T06:35:34.542Z,96049.19
2022-09-21T06:38:02.779Z,96059.78
2022-09-21T06:40:30.352Z,96056.94
2022-09-21T06:42:58.639Z,96056.94
2022-09-21T06:45:29.572Z,96058.16
2022-09-21T06:47:56.116Z,96064.06
2022-09-21T06:50:23.164Z,96066.53
2022-09-21T06:52:49.881Z,96067.97
2022-09-21T06:55:16.832Z,96065.50
2022-09-21T06:57:43.817Z,96071.19
2022-09-21T07:00:12.559Z,96072.22
2022-09-21T07:02:43.042Z,96073.84
2022-09-21T07:05:09.617Z,96073.06
2022-09-21T07:07:36.474Z,96072.63
2022-09-21T07:10:06.019Z,96084.25
2022-09-21T07:12:34.705Z,96079.16
2022-09-21T07:15:06.129Z,96085.66
2022-09-21T07:17:37.326Z,96086.28
2022-09-21T07:20:05.789Z,96084.66
2022-09-21T07:22:32.832Z,96088.31
2022-09-21T07:24:59.862Z,96087.50
2022-09-21T07:27:28.031Z,96092.00
2022-09-21T07:29:54.545Z,96091.19
2022-09-21T07:32:21.514Z,96094.44
2022-09-21T07:34:48.332Z,96100.56
2022-09-21T07:37:15.304Z,96099.75
2022-09-21T07:39:41.998Z,96100.56
2022-09-21T07:42:08.852Z,96100.56
2022-09-21T07:44:35.418Z,96100.78
2022-09-21T07:47:03.382Z,96111.16
2022-09-21T07:49:30.092Z,96105.03
2022-09-21T07:52:01.488Z,96105.25
2022-09-21T07:54:29.526Z,96108.31
2022-09-21T07:57:22.124Z,96108.72
2022-09-21T07:59:48.664Z,96105.44
2022-09-21T08:02:15.315Z,96117.66
2022-09-21T08:04:41.853Z,96113.38
2022-09-21T08:07:09.069Z,96107.31
2022-09-21T08:09:35.663Z,96111.38
2022-09-21T08:12:02.526Z,96111.59
2022-09-21T08:14:29.339Z,96106.69
2022-09-21T08:16:55.970Z,96108.72
2022-09-21T08:19:25.771Z,96108.34
2022-09-21T08:21:57.190Z,96113.44
2022-09-21T08:24:26.772Z,96118.91
2022-09-21T08:26:55.823Z,96116.69
2022-09-21T08:29:23.926Z,96112.00
2022-09-21T08:31:50.532Z,96118.53
2022-09-21T08:34:17.492Z,96106.06
2022-09-21T08:36:44.053Z,96112.00
2022-09-21T08:39:10.671Z,96116.88
2022-09-21T08:42:07.944Z,96116.50
2022-09-21T08:44:52.094Z,96125.66
2022-09-21T08:47:34.621Z,96128.09
2022-09-21T08:50:03.058Z,96113.22
2022-09-21T08:52:31.365Z,96133.59
2022-09-21T08:55:02.606Z,96124.66
2022-09-21T08:57:30.934Z,96126.25
2022-09-21T09:00:00.134Z,96135.63
2022-09-21T09:02:54.740Z,96125.63
2022-09-21T09:05:42.649Z,96129.53
2022-09-21T09:08:12.713Z,96122.59
2022-09-21T09:11:15.363Z,96116.03
2022-09-21T09:14:00.760Z,96128.47
2022-09-21T09:16:39.535Z,96116.66
2022-09-21T09:19:28.869Z,96118.50
2022-09-21T09:21:56.582Z,96117.69
2022-09-21T09:24:44.392Z,96116.44
2022-09-21T09:27:17.757Z,96112.78
2022-09-21T09:30:05.638Z,96108.66
2022-09-21T09:32:43.499Z,96119.06
2022-09-21T09:35:15.900Z,96115.19
2022-09-21T09:37:44.261Z,96105.00
2022-09-21T09:40:14.445Z,96106.22
2022-09-21T09:43:04.700Z,96114.97
2022-09-21T09:45:51.322Z,96116.81
2022-09-21T09:48:33.870Z,96114.16
2022-09-21T09:51:00.531Z,96116.03
2022-09-21T09:53:27.633Z,96125.41
2022-09-21T09:55:56.942Z,96115.25
2022-09-21T09:58:38.313Z,96114.19
2022-09-21T10:01:05.631Z,96113.97
2022-09-21T10:03:32.330Z,96111.50
2022-09-21T10:05:58.901Z,96113.56
2022-09-21T10:08:46.433Z,96118.44
2022-09-21T10:11:15.635Z,96118.03
2022-09-21T10:13:43.358Z,96112.31
2022-09-21T10:16:09.935Z,96107.63
2022-09-21T10:19:01.896Z,96120.88
2022-09-21T10:21:37.005Z,96128.03
2022-09-21T10:24:07.533Z,96118.28
2022-09-21T10:26:48.802Z,96118.09
2022-09-21T10:29:25.325Z,96129.09
2022-09-21T10:31:56.576Z,96128.47
2022-09-21T10:34:23.611Z,96123.19
2022-09-21T10:36:56.092Z,96126.84
2022-09-21T10:39:24.573Z,96128.91
2022-09-21T10:42:18.338Z,96122.53
2022-09-21T10:44:47.308Z,96122.13
2022-09-21T10:47:19.485Z,96120.47
2022-09-21T10:49:52.396Z,96121.53
2022-09-21T10:52:22.952Z,96128.66
2022-09-21T10:54:52.388Z,96126.19
2022-09-21T10:57:22.583Z,96134.34
2022-09-21T10:59:49.294Z,96128.22
2022-09-21T11:02:32.325Z,96131.47
2022-09-21T11:05:11.588Z,96128.84
2022-09-21T11:08:15.971Z,96128.63
2022-09-21T11:10:49.164Z,96122.94
2022-09-21T11:13:36.829Z,96122.13
2022-09-21T11:16:31.388Z,96123.34
2022-09-21T11:19:22.304Z,96123.53
2022-09-21T11:22:07.786Z,96112.50
2022-09-21T11:24:40.864Z,96127.41
2022-09-21T11:27:12.560Z,96125.16
2022-09-21T11:30:07.031Z,96137.22
2022-09-21T11:32:55.233Z,96131.13
2022-09-21T11:35:37.141Z,96133.13
2022-09-21T11:38:14.744Z,96129.09
2022-09-21T11:41:08.577Z,96124.38
2022-09-21T11:43:53.755Z,96127.03
2022-09-21T11:46:28.222Z,96119.28
2022-09-21T11:49:03.582Z,96126.84
2022-09-21T11:51:45.347Z,96112.34
2022-09-21T11:54:20.885Z,96121.31
2022-09-21T11:56:54.266Z,96124.38
2022-09-21T11:59:41.316Z,96124.16
2022-09-21T12:02:17.316Z,96127.22
2022-09-21T12:05:27.678Z,96131.91
2022-09-21T12:08:20.277Z,96122.34
2022-09-21T12:11:13.364Z,96127.03
2022-09-21T12:14:00.812Z,96116.03
2022-09-21T12:16:52.070Z,96126.63
2022-09-21T12:19:29.676Z,96109.47
2022-09-21T12:22:07.664Z,96126.63
2022-09-21T12:24:45.814Z,96124.97
2022-09-21T12:27:41.475Z,96127.03
2022-09-21T12:30:27.671Z,96124.97
2022-09-21T12:33:15.783Z,96114.97
2022-09-21T12:35:49.952Z,96124.97
2022-09-21T12:38:40.920Z,96122.13
2022-09-21T12:41:16.044Z,96118.84
2022-09-21T12:44:01.220Z,96120.03
2022-09-21T12:46:27.745Z,96121.69
2022-09-21T12:48:54.942Z,96118.44
2022-09-21T12:51:40.930Z,96120.09
2022-09-21T12:54:45.255Z,96124.56
2022-09-21T12:57:53.519Z,96120.69
2022-09-21T13:00:23.296Z,96129.47
2022-09-21T13:03:12.312Z,96122.94
2022-09-21T13:05:59.166Z,96120.72
2022-09-21T13:08:47.006Z,96124.19
2022-09-21T13:11:20.914Z,96120.09
2022-09-21T13:13:52.905Z,96120.28
2022-09-21T13:16:38.915Z,96118.03
2022-09-21T13:19:22.885Z,96116.00
2022-09-21T13:22:13.826Z,96113.94
2022-09-21T13:24:42.909Z,96119.66
2022-09-21T13:27:09.706Z,96106.59
2022-09-21T13:29:40.319Z,96107.00
2022-09-21T13:32:12.793Z,96110.28
2022-09-21T13:34:44.008Z,96113.56
2022-09-21T13:37:19.640Z,96115.59
2022-09-21T13:39:58.065Z,96114.97
2022-09-21T13:42:30.922Z,96104.97
2022-09-21T13:45:04.719Z,96117.41
2022-09-21T13:47:38.581Z,96112.50
2022-09-21T13:50:37.202Z,96106.59
2022-09-21T13:53:07.792Z,96110.69
2022-09-21T13:55:39.132Z,96114.34
2022-09-21T13:58:26.751Z,96120.84
2022-09-21T14:00:55.361Z,96109.25
2022-09-21T14:03:32.850Z,96112.50
2022-09-21T14:06:12.479Z,96113.13
2022-09-21T14:08:49.362Z,96109.44
2022-09-21T14:11:23.872Z,96106.78
2022-09-21T14:14:03.015Z,96105.56
2022-09-21T14:16:37.286Z,96096.56
2022-09-21T14:19:29.742Z,96100.00
2022-09-21T14:22:08.392Z,96094.50
2022-09-21T14:24:44.004Z,96091.44
2022-09-21T14:27:17.636Z,96092.63
2022-09-21T14:29:54.098Z,96091.03
2022-09-21T14:32:23.892Z,96090.16
2022-09-21T14:34:56.548Z,96090.56
2022-09-21T14:37:33.046Z,96081.78
2022-09-21T14:40:06.815Z,96095.06
2022-09-21T14:42:33.542Z,96092.59
2022-09-21T14:45:02.147Z,96087.31
2022-09-21T14:47:28.767Z,96093.00
2022-09-21T14:50:22.839Z,96091.38
2022-09-21T14:53:08.161Z,96085.66
2022-09-21T14:56:10.468Z,96086.88
2022-09-21T14:58:52.120Z,96080.69
2022-09-21T15:01:36.696Z,96086.41
2022-09-21T15:04:45.277Z,96090.53
2022-09-21T15:07:46.464Z,96090.72
2022-09-21T15:10:55.963Z,96101.16
2022-09-21T15:13:46.580Z,96102.81
2022-09-21T15:16:20.246Z,96111.78
2022-09-21T15:18:48.689Z,96114.44
2022-09-21T15:21:29.931Z,96123.22
2022-09-21T15:23:56.978Z,96114.06
2022-09-21T15:26:29.152Z,96124.50
2022-09-21T15:29:15.684Z,96120.03
2022-09-21T15:31:42.637Z,96126.94
2022-09-21T15:34:13.606Z,96122.88
2022-09-21T15:36:42.101Z,96131.84
2022-09-21T15:39:30.164Z,96129.38
2022-09-21T15:42:05.683Z,96130.63
2022-09-21T15:44:33.966Z,96128.41
2022-09-21T15:47:03.255Z,96130.66
2022-09-21T15:49:30.563Z,96128.63
2022-09-21T15:52:23.345Z,96129.03
2022-09-21T15:54:58.377Z,96133.72
2022-09-21T15:57:39.153Z,96139.03
2022-09-21T16:00:31.837Z,96133.53
2022-09-21T16:03:07.448Z,96135.56
2022-09-21T16:05:48.375Z,96135.16
2022-09-21T16:08:36.717Z,96141.31
2022-09-21T16:11:14.080Z,96147.06
2022-09-21T16:14:00.826Z,96143.38
2022-09-21T16:16:27.971Z,96142.75
2022-09-21T16:18:56.461Z,96141.75
2022-09-21T16:21:27.764Z,96137.03
2022-09-21T16:23:57.358Z,96140.28
2022-09-21T16:26:28.322Z,96142.53
2022-09-21T16:29:23.968Z,96142.94
2022-09-21T16:31:51.526Z,96136.25
2022-09-21T16:34:26.570Z,96141.75
2022-09-21T16:36:54.737Z,96144.41
2022-09-21T16:39:22.756Z,96152.34
2022-09-21T16:41:56.404Z,96160.50
2022-09-21T16:44:26.120Z,96169.06
2022-09-21T16:46:59.096Z,96162.16
2022-09-21T16:49:30.670Z,96164.19
2022-09-21T16:51:58.507Z,96161.94
2022-09-21T16:54:27.134Z,96161.31
2022-09-21T16:56:55.746Z,96160.94
2022-09-21T16:59:23.400Z,96179.06
2022-09-21T17:01:56.091Z,96171.72
2022-09-21T17:04:26.616Z,96168.47
2022-09-21T17:06:54.972Z,96175.19
2022-09-21T17:09:27.073Z,96169.09
2022-09-21T17:11:57.888Z,96174.81
2022-09-21T17:14:25.466Z,96177.22
2022-09-21T17:16:55.017Z,96183.34
2022-09-21T17:19:21.937Z,96184.94
2022-09-21T17:21:49.540Z,96187.81
2022-09-21T17:24:38.897Z,96181.44
2022-09-21T17:27:03.765Z,96185.53
2022-09-21T17:29:30.987Z,96183.09
2022-09-21T17:31:58.606Z,96177.78
2022-09-21T17:34:30.298Z,96178.25
2022-09-21T17:36:56.835Z,96183.34
2022-09-21T17:39:24.351Z,96189.25
2022-09-21T17:41:59.195Z,96191.03
2022-09-21T17:44:25.669Z,96193.47
2022-09-21T17:47:13.694Z,96199.97
2022-09-21T17:49:40.488Z,96195.09
2022-09-21T17:52:35.663Z,96205.88
2022-09-21T17:55:08.121Z,96197.09
2022-09-21T17:57:47.076Z,96200.38
2022-09-21T18:00:20.241Z,96196.69
2022-09-21T18:02:48.088Z,96190.41
2022-09-21T18:05:29.459Z,96209.53
2022-09-21T18:07:56.639Z,96206.09
2022-09-21T18:10:30.202Z,96208.72
2022-09-21T18:13:18.743Z,96207.09
2022-09-21T18:15:52.938Z,96216.84
2022-09-21T18:18:30.839Z,96217.25
2022-09-21T18:21:08.990Z,96220.91
2022-09-21T18:23:47.628Z,96216.25
2022-09-21T18:26:17.606Z,96213.81
2022-09-21T18:28:58.126Z,96215.03
2022-09-21T18:32:15.723Z,96220.72
2022-09-21T18:35:23.738Z,96219.47
2022-09-21T18:38:08.688Z,96223.97
2022-09-21T18:40:51.488Z,96224.56
2022-09-21T18:43:42.299Z,96218.25
2022-09-21T18:46:29.246Z,96226.41
2022-09-21T18:48:55.887Z,96230.69
2022-09-21T18:51:41.488Z,96214.38
2022-09-21T18:54:22.556Z,96225.56
2022-09-21T18:56:50.027Z,96218.59
2022-09-21T18:59:17.302Z,96225.56
2022-09-21T19:01:46.996Z,96231.03
2022-09-21T19:04:15.014Z,96226.34
2022-09-21T19:07:02.034Z,96228.78
2022-09-21T19:09:51.245Z,96228.41
2022-09-21T19:12:24.196Z,96222.91
2022-09-21T19:15:07.810Z,96228.00
2022-09-21T19:17:39.645Z,96233.72
2022-09-21T19:20:24.375Z,96217.84
2022-09-21T19:22:59.988Z,96217.03
2022-09-21T19:25:48.852Z,96218.28
2022-09-21T19:28:22.222Z,96217.25
2022-09-21T19:30:58.277Z,96217.84
2022-09-21T19:33:49.436Z,96221.75
2022-09-21T19:36:16.613Z,96224.19
2022-09-21T19:38:43.476Z,96222.34
2022-09-21T19:41:35.166Z,96213.81
2022-09-21T19:44:12.981Z,96216.63
2022-09-21T19:46:47.966Z,96207.28
2022-09-21T19:49:20.389Z,96208.66
2022-09-21T19:51:49.749Z,96212.16
2022-09-21T19:54:39.520Z,96214.59
2022-09-21T19:57:36.631Z,96209.28
2022-09-21T20:00:06.812Z,96217.25
2022-09-21T20:02:42.891Z,96213.38
2022-09-21T20:05:09.738Z,96216.63
2022-09-21T20:07:48.957Z,96215.44
2022-09-21T20:10:44.061Z,96216.69
2022-09-21T20:13:28.396Z,96208.72
2022-09-21T20:16:21.521Z,96218.28
2022-09-21T20:19:01.577Z,96220.53
2022-09-21T20:21:38.264Z,96219.53
2022-09-21T20:24:23.764Z,96199.34
2022-09-21T20:26:51.203Z,96219.53
2022-09-21T20:29:19.647Z,96215.44
2022-09-21T20:31:48.487Z,96208.94
2022-09-21T20:34:15.642Z,96210.31
2022-09-21T20:36:42.240Z,96210.94
2022-09-21T20:39:08.852Z,96220.09
2022-09-21T20:41:35.875Z,96219.69
2022-09-21T20:44:02.590Z,96213.59
2022-09-21T20:46:30.182Z,96208.88
2022-09-21T20:49:04.481Z,96204.00
2022-09-21T20:51:33.954Z,96200.38
2022-09-21T20:54:04.464Z,96203.22
2022-09-21T20:56:31.599Z,96202.59
2022-09-21T20:58:58.334Z,96202.59
2022-09-21T21:01:25.465Z,96203.22
2022-09-21T21:03:52.265Z,96204.19
2022-09-21T21:06:19.143Z,96203.00
2022-09-21T21:08:46.621Z,96188.13
2022-09-21T21:11:14.591Z,96189.75
2022-09-21T21:13:41.640Z,96191.38
2022-09-21T21:16:12.217Z,96191.38
2022-09-21T21:18:43.000Z,96189.75
2022-09-21T21:21:09.640Z,96197.94
2022-09-21T21:23:54.747Z,96191.38
2022-09-21T21:26:33.334Z,96194.44
2022-09-21T21:29:05.036Z,96182.41
2022-09-21T21:31:32.238Z,96190.56
2022-09-21T21:33:58.884Z,96192.41
2022-09-21T21:36:25.519Z,96183.44
2022-09-21T21:38:52.022Z,96189.16
2022-09-21T21:41:18.555Z,96180.78
2022-09-21T21:43:45.314Z,96175.91
2022-09-21T21:46:11.954Z,96179.97
2022-09-21T21:48:40.878Z,96179.97
2022-09-21T21:51:08.008Z,96177.94
2022-09-21T21:53:36.728Z,96178.38
2022-09-21T21:56:05.458Z,96182.47
2022-09-21T21:58:33.246Z,96174.69
2022-09-21T22:01:06.955Z,96175.50
2022-09-21T22:03:33.812Z,96176.31
2022-09-21T22:06:00.348Z,96177.13
2022-09-21T22:08:28.441Z,96170.63
2022-09-21T22:10:55.073Z,96169.38
2022-09-21T22:13:23.052Z,96174.31
2022-09-21T22:15:50.613Z,96174.50
2022-09-21T22:18:20.337Z,96165.53
2022-09-21T22:20:47.351Z,96181.63
2022-09-21T22:23:14.889Z,96177.75
2022-09-21T22:25:41.671Z,96176.53
2022-09-21T22:28:08.251Z,96177.53
2022-09-21T22:30:34.772Z,96179.41
2022-09-21T22:33:02.213Z,96182.03
2022-09-21T22:35:28.734Z,96172.25
2022-09-21T22:37:56.222Z,96175.50
2022-09-21T22:40:23.418Z,96175.50
2022-09-21T22:42:50.069Z,96168.19
2022-09-21T22:45:16.645Z,96165.53
2022-09-21T22:47:43.242Z,96163.72
2022-09-21T22:50:10.279Z,96159.25
2022-09-21T22:52:36.881Z,96159.03
2022-09-21T22:55:03.687Z,96162.47
2022-09-21T22:57:30.275Z,96163.31
2022-09-21T22:59:56.809Z,96161.69
2022-09-21T23:02:24.491Z,96160.03
2022-09-21T23:04:51.031Z,96158.41
2022-09-21T23:07:17.551Z,96159.63
2022-09-21T23:09:44.091Z,96165.75
2022-09-21T23:12:10.615Z,96160.03
2022-09-21T23:14:37.155Z,96156.34
2022-09-21T23:17:03.733Z,96151.47
2022-09-21T23:19:30.329Z,96155.16
2022-09-21T23:21:57.703Z,96153.50
2022-09-21T23:24:24.225Z,96150.69
2022-09-21T23:26:51.652Z,96148.19
2022-09-21T23:29:18.363Z,96143.31
2022-09-21T23:31:46.235Z,96140.44
2022-09-21T23:34:13.972Z,96142.91
2022-09-21T23:36:41.706Z,96146.16
2022-09-21T23:39:11.590Z,96143.31
2022-09-21T23:41:38.511Z,96146.16
2022-09-21T23:44:05.977Z,96152.91
2022-09-21T23:46:35.671Z,96150.84
2022-09-21T23:49:03.133Z,96141.28
2022-09-21T23:51:32.773Z,96146.38
2022-09-21T23:54:00.283Z,96144.56
2022-09-21T23:56:28.545Z,96139.25
2022-09-21T23:58:55.388Z,96144.13
